Terminal Aerodrome Forecast
Issued by NWS Sterling, VA

Current Version | Previous Version | Graphics & Text | Print | Product List | Glossary On
Versions: 1 2 3 4 5 6 7 8 9 10 11 12 13 14 15 16 17 18 19 20 21 22 23 24
000
FTUS41 KLWX 042320
TAFMRB
TAF
KMRB 042320Z 0500/0524 VRB03KT P6SM BKN130
     FM050200 04004KT 5SM BR SCT130
     FM050400 VRB03KT 2SM BR FEW002 SCT130
     FM050900 00000KT 1/4SM FG SCT001 SCT200
     FM051300 VRB03KT 3SM BR SCT200
     FM051400 VRB03KT P6SM SCT050 SCT200=

USA.gov is the U.S. government's official web portal to all federal, state and local government web resources and services.